Time;durP1;ratioP1;P1;durP2;ratioP2;P2;SDS_P1;SDS_P2;PMS_P1;PMS_P2;Temp;Humidity;BMP_temperature;BMP_pressure;BME280_temperature;BME280_humidity;BME280_pressure;Samples;Min_cycle;Max_cycle;Signal;HPM_P1;HPM_P2
2023/11/03 00:00:09;;;;;;;;;11.00;9.00;;;;;-143.90;98.39;73382.25;4986177;28;104099;-83
2023/11/03 00:02:37;;;;;;;;;9.00;8.25;;;;;-143.90;97.58;73374.00;4969334;28;102109;-81
2023/11/03 00:05:12;;;;;;;;;10.00;10.00;;;;;-143.90;98.11;73382.25;4980887;28;102014;-83
2023/11/03 00:07:39;;;;;;;;;11.25;10.50;;;;;-143.90;98.13;73374.00;4966862;28;102305;-83
2023/11/03 00:10:09;;;;;;;;;14.00;14.00;;;;;-143.90;98.66;73382.25;4984569;28;104117;-83
2023/11/03 00:12:37;;;;;;;;;15.00;14.00;;;;;-143.90;98.53;73376.06;4983685;28;102296;-81
2023/11/03 00:15:05;;;;;;;;;11.50;10.50;;;;;-143.90;99.44;73378.13;4982764;28;102067;-79
2023/11/03 00:17:31;;;;;;;;;11.00;11.00;;;;;-143.90;99.21;73378.13;4989422;28;102313;-80
2023/11/03 00:19:58;;;;;;;;;11.00;10.25;;;;;-143.90;99.88;73374.00;4986678;28;102809;-82
2023/11/03 00:22:28;;;;;;;;;10.25;10.00;;;;;-143.90;99.95;73374.00;4976903;28;101975;-76
2023/11/03 00:24:55;;;;;;;;;9.50;9.50;;;;;-143.90;100.00;73374.00;4988685;28;102280;-74
2023/11/03 00:27:23;;;;;;;;;11.50;9.50;;;;;-143.90;100.00;73365.72;4988592;28;101988;-81
2023/11/03 00:29:52;;;;;;;;;11.00;11.00;;;;;-143.90;100.00;73365.72;4980428;28;110345;-81
2023/11/03 00:32:19;;;;;;;;;9.50;9.00;;;;;-143.90;100.00;73369.84;4988153;28;101999;-81
2023/11/03 00:34:47;;;;;;;;;10.75;10.50;;;;;-143.90;100.00;73357.47;4980465;28;103048;-82
2023/11/03 00:37:13;;;;;;;;;10.75;10.75;;;;;-143.90;100.00;73355.38;4983121;28;101963;-82
2023/11/03 00:39:40;;;;;;;;;8.75;8.75;;;;;-143.90;100.00;73345.06;4983241;28;105562;-81
2023/11/03 00:42:07;;;;;;;;;10.00;10.00;;;;;-143.90;100.00;73351.25;4992357;28;102346;-82
2023/11/03 00:44:34;;;;;;;;;8.00;8.00;;;;;-143.90;100.00;73340.94;4978554;28;102021;-80
2023/11/03 00:47:01;;;;;;;;;10.00;10.00;;;;;-143.90;100.00;73334.72;4981759;28;102154;-80
2023/11/03 00:49:27;;;;;;;;;11.00;10.75;;;;;-143.90;100.00;73326.47;4979208;28;103970;-80
2023/11/03 00:51:54;;;;;;;;;11.00;10.00;;;;;-143.90;100.00;73318.19;4986024;28;102120;-81
2023/11/03 00:54:22;;;;;;;;;8.00;6.75;;;;;-143.90;99.86;73314.06;4981232;28;102043;-80
2023/11/03 00:56:49;;;;;;;;;12.00;11.75;;;;;-143.90;100.00;73316.13;4965867;28;102194;-81
2023/11/03 00:59:16;;;;;;;;;11.25;10.00;;;;;-143.90;100.00;73307.84;4982783;28;103924;-81
2023/11/03 01:01:45;;;;;;;;;11.50;11.00;;;;;-143.90;100.00;73303.72;4978824;28;102200;-84
2023/11/03 01:04:12;;;;;;;;;11.50;11.50;;;;;-143.90;100.00;73299.59;4977764;28;102411;-81
2023/11/03 01:06:40;;;;;;;;;10.50;10.50;;;;;-143.90;100.00;73299.59;4989611;28;102487;-81
2023/11/03 01:09:09;;;;;;;;;12.50;11.00;;;;;-143.90;100.00;73299.59;4983569;28;104218;-82
2023/11/03 01:11:36;;;;;;;;;12.00;10.00;;;;;-143.90;100.00;73287.19;4981566;28;102387;-82
2023/11/03 01:14:09;;;;;;;;;8.50;8.50;;;;;-143.90;99.35;73285.13;4991790;28;101823;-83
2023/11/03 01:16:38;;;;;;;;;11.75;11.25;;;;;-143.90;99.80;73278.94;4988034;28;102557;-82
2023/11/03 01:19:05;;;;;;;;;13.00;12.00;;;;;-143.90;99.78;73281.00;4986414;28;104135;-83
2023/11/03 01:21:33;;;;;;;;;13.00;12.00;;;;;-143.90;100.00;73291.31;4987557;28;102154;-83
2023/11/03 01:24:00;;;;;;;;;12.25;11.25;;;;;-143.90;100.00;73299.59;4971445;28;101990;-84
2023/11/03 01:26:27;;;;;;;;;12.00;12.00;;;;;-143.90;100.00;73291.31;4985271;28;102816;-84
2023/11/03 01:28:54;;;;;;;;;10.00;10.00;;;;;-143.90;99.65;73291.31;4987772;28;104213;-83
2023/11/03 01:31:21;;;;;;;;;9.00;9.00;;;;;-143.90;98.95;73285.13;4984285;28;101930;-83
2023/11/03 01:33:49;;;;;;;;;9.25;9.00;;;;;-143.90;99.07;73274.81;4978899;28;101691;-83
2023/11/03 01:36:16;;;;;;;;;10.75;6.00;;;;;-143.90;98.58;73250.00;4985847;28;102546;-83
2023/11/03 01:38:48;;;;;;;;;4.75;4.00;;;;;-143.90;98.47;73247.94;5007331;28;104020;-82
2023/11/03 01:41:15;;;;;;;;;9.00;6.00;;;;;-143.90;98.51;73245.88;5006898;28;104812;-81
2023/11/03 01:44:03;;;;;;;;;8.00;6.50;;;;;-143.90;98.02;73241.75;4973156;28;102109;-82
2023/11/03 01:46:29;;;;;;;;;11.00;10.00;;;;;-143.90;98.24;73237.59;4982486;28;102089;-82
2023/11/03 01:48:56;;;;;;;;;9.00;6.50;;;;;-143.90;98.02;73231.41;4965867;28;104054;-82
2023/11/03 01:51:24;;;;;;;;;12.00;11.75;;;;;-143.90;99.45;73225.19;4986501;28;101951;-81
2023/11/03 01:53:51;;;;;;;;;12.25;11.00;;;;;-143.90;100.00;73237.59;4982860;28;102457;-83
2023/11/03 01:56:18;;;;;;;;;9.00;9.00;;;;;-143.90;100.00;73239.66;4986783;28;102409;-82
2023/11/03 01:58:45;;;;;;;;;3.25;3.25;;;;;-143.90;100.00;73233.47;4981941;28;104276;-84
2023/11/03 02:01:12;;;;;;;;;10.00;9.00;;;;;-143.90;100.00;73237.59;4984564;28;102252;-78
2023/11/03 02:03:39;;;;;;;;;8.75;8.75;;;;;-143.90;100.00;73235.53;4970986;28;101931;-82
2023/11/03 02:06:06;;;;;;;;;10.00;9.00;;;;;-143.90;100.00;73221.06;4974111;28;102068;-79
2023/11/03 02:08:33;;;;;;;;;10.00;9.50;;;;;-143.90;100.00;73225.19;4963369;28;104173;-81
2023/11/03 02:11:00;;;;;;;;;7.50;6.50;;;;;-143.90;100.00;73202.47;4975876;28;102252;-81
2023/11/03 02:13:34;;;;;;;;;8.75;8.00;;;;;-143.90;100.00;73202.47;4979439;28;102535;-77
2023/11/03 02:16:01;;;;;;;;;9.75;9.00;;;;;-143.90;100.00;73190.06;4967082;28;102373;-80
2023/11/03 02:18:29;;;;;;;;;6.00;6.00;;;;;-143.90;100.00;73179.75;4978742;28;104011;-81
2023/11/03 02:20:56;;;;;;;;;7.00;6.00;;;;;-143.90;100.00;73179.75;4984283;28;102324;-79
2023/11/03 02:23:23;;;;;;;;;10.50;9.75;;;;;-143.90;100.00;73185.94;4980799;28;102072;-81
2023/11/03 02:25:49;;;;;;;;;8.00;6.50;;;;;-143.90;100.00;73196.28;4977449;28;101973;-80
2023/11/03 02:28:16;;;;;;;;;9.75;8.75;;;;;-143.90;100.00;73198.34;4963138;28;104306;-81
2023/11/03 02:30:42;;;;;;;;;11.00;10.00;;;;;-143.90;100.00;73192.16;4982365;28;101866;-80
2023/11/03 02:33:09;;;;;;;;;10.50;8.50;;;;;-143.90;100.00;73202.47;4981649;28;102103;-80
2023/11/03 02:35:36;;;;;;;;;7.50;7.00;;;;;-143.90;100.00;73196.28;4985586;28;103199;-82
2023/11/03 02:38:02;;;;;;;;;5.75;5.75;;;;;-143.90;100.00;73200.41;4986015;28;103988;-80
2023/11/03 02:40:29;;;;;;;;;5.25;4.00;;;;;-143.90;100.00;73190.06;4981107;28;102153;-81
2023/11/03 02:42:55;;;;;;;;;6.25;5.50;;;;;-143.90;100.00;73188.00;4980378;28;102141;-78
2023/11/03 02:45:22;;;;;;;;;8.25;8.00;;;;;-143.90;100.00;73188.00;4973811;28;102018;-82
2023/11/03 02:47:49;;;;;;;;;6.00;6.00;;;;;-143.90;100.00;73185.94;4983547;28;104423;-80
2023/11/03 02:50:15;;;;;;;;;10.50;9.75;;;;;-143.90;100.00;73183.88;4982119;28;102317;-80
2023/11/03 02:52:42;;;;;;;;;10.75;9.25;;;;;-143.90;100.00;73175.63;4986318;28;102271;-80
2023/11/03 02:55:09;;;;;;;;;8.50;7.00;;;;;-143.90;100.00;73173.53;4989715;28;102532;-80
2023/11/03 02:57:35;;;;;;;;;8.75;8.75;;;;;-143.90;100.00;73169.41;4981638;28;104007;-81
2023/11/03 03:00:03;;;;;;;;;6.25;6.25;;;;;-143.90;100.00;73154.94;4984454;28;102196;-81
2023/11/03 03:02:29;;;;;;;;;7.00;6.00;;;;;-143.90;99.53;73142.56;4986114;28;102331;-81
2023/11/03 03:04:56;;;;;;;;;9.25;8.25;;;;;-143.90;99.45;73136.34;4984002;28;102373;-79
2023/11/03 03:07:22;;;;;;;;;8.75;8.00;;;;;-143.90;99.86;73132.22;4969497;28;104146;-83
2023/11/03 03:09:49;;;;;;;;;7.75;6.25;;;;;-143.90;99.81;73126.03;4986608;28;103176;-81
2023/11/03 03:12:17;;;;;;;;;5.75;5.00;;;;;-143.90;98.83;73121.88;4984049;28;101924;-83
2023/11/03 03:14:43;;;;;;;;;6.00;5.00;;;;;-143.90;99.16;73113.63;4978790;28;102049;-83
2023/11/03 03:17:11;;;;;;;;;6.25;6.25;;;;;-143.90;98.58;73111.56;4986000;28;104156;-82
2023/11/03 03:19:37;;;;;;;;;8.50;8.00;;;;;-143.90;98.42;73088.81;4982551;28;102168;-81
2023/11/03 03:22:04;;;;;;;;;5.00;5.00;;;;;-143.90;97.83;73097.09;4978575;28;102877;-81
2023/11/03 03:24:31;;;;;;;;;4.75;4.75;;;;;-143.90;97.89;73084.69;4969527;28;102152;-81
2023/11/03 03:26:57;;;;;;;;;6.50;6.50;;;;;-143.90;98.26;73086.75;4975059;28;104042;-81
2023/11/03 03:29:24;;;;;;;;;8.50;8.00;;;;;-143.90;97.93;73084.69;4964038;28;102382;-81
2023/11/03 03:31:51;;;;;;;;;6.00;5.50;;;;;-143.90;97.83;73072.28;4963842;28;102176;-82
2023/11/03 03:34:18;;;;;;;;;9.00;9.00;;;;;-143.90;97.85;73084.69;4986308;28;101979;-82
2023/11/03 03:36:45;;;;;;;;;6.25;6.25;;;;;-143.90;97.96;73082.63;4979320;28;103911;-82
2023/11/03 03:39:13;;;;;;;;;8.00;8.00;;;;;-143.90;97.98;73088.81;4948819;28;101991;-79
2023/11/03 03:41:39;;;;;;;;;6.00;6.00;;;;;-143.90;98.48;73088.81;4991977;28;101960;-83
2023/11/03 03:44:06;;;;;;;;;10.00;8.00;;;;;-143.90;98.63;73088.81;4964544;28;102003;-81
2023/11/03 03:46:37;;;;;;;;;5.25;5.00;;;;;-143.90;98.15;73090.91;4982525;28;104030;-82
2023/11/03 03:49:05;;;;;;;;;6.50;6.00;;;;;-143.90;97.26;73080.56;4985851;28;102262;-82
2023/11/03 03:51:31;;;;;;;;;11.50;10.50;;;;;-143.90;98.40;73076.44;4987792;28;103760;-81
2023/11/03 03:53:58;;;;;;;;;9.25;9.00;;;;;-143.90;98.86;73076.44;4982270;28;102155;-80
2023/11/03 03:56:25;;;;;;;;;12.75;10.75;;;;;-143.90;100.00;73090.91;4982283;28;104453;-81
2023/11/03 03:58:53;;;;;;;;;10.25;10.00;;;;;-143.90;99.92;73080.56;4985438;28;102153;-80
2023/11/03 04:01:21;;;;;;;;;9.00;8.00;;;;;-143.90;100.00;73084.69;4980648;28;101860;-81
2023/11/03 04:03:48;;;;;;;;;4.25;4.25;;;;;-143.90;100.00;73078.50;4984460;28;101987;-81
2023/11/03 04:06:15;;;;;;;;;9.00;8.75;;;;;-143.90;100.00;73078.50;4986458;28;104000;-80
2023/11/03 04:08:42;;;;;;;;;9.00;9.00;;;;;-143.90;100.00;73072.28;4984105;28;101904;-80
2023/11/03 04:11:12;;;;;;;;;7.00;5.25;;;;;-143.90;99.79;73061.97;4982473;28;101850;-81
2023/11/03 04:13:39;;;;;;;;;10.50;8.50;;;;;-143.90;99.57;73053.69;4993019;28;101992;-81
2023/11/03 04:16:06;;;;;;;;;8.75;8.00;;;;;-143.90;99.58;73059.91;4983768;28;104194;-78
2023/11/03 04:18:33;;;;;;;;;10.00;8.75;;;;;-143.90;99.10;73051.63;4982605;28;102918;-80
2023/11/03 04:21:00;;;;;;;;;8.50;8.00;;;;;-143.90;98.98;73047.50;4978901;28;101906;-80
2023/11/03 04:23:27;;;;;;;;;10.00;8.75;;;;;-143.90;99.07;73045.44;4977363;28;101911;-80
2023/11/03 04:25:53;;;;;;;;;7.00;6.00;;;;;-143.90;98.60;73055.75;4980921;28;104240;-80
2023/11/03 04:28:20;;;;;;;;;10.25;10.00;;;;;-143.90;98.42;73047.50;4978369;28;102173;-82
2023/11/03 04:30:47;;;;;;;;;7.50;7.00;;;;;-143.90;98.50;73051.63;4986707;28;102318;-82
2023/11/03 04:33:13;;;;;;;;;8.00;6.25;;;;;-143.90;99.11;73049.56;4985824;28;102302;-82
2023/11/03 04:35:41;;;;;;;;;8.00;8.00;;;;;-143.90;99.24;73047.50;4979462;28;104212;-80
2023/11/03 04:38:11;;;;;;;;;7.00;5.75;;;;;-143.90;99.09;73045.44;4983551;28;102112;-80
2023/11/03 04:40:37;;;;;;;;;6.00;5.25;;;;;-143.90;99.67;73055.75;4987434;28;101865;-82
2023/11/03 04:43:04;;;;;;;;;9.75;8.25;;;;;-143.90;99.12;73055.75;4982044;28;102316;-80
2023/11/03 04:45:31;;;;;;;;;6.00;6.00;;;;;-143.90;98.62;73043.38;4981678;28;104162;-80
2023/11/03 04:47:57;;;;;;;;;11.50;10.50;;;;;-143.90;98.23;73035.09;4984714;28;102077;-82
2023/11/03 04:50:24;;;;;;;;;9.00;8.00;;;;;-143.90;98.51;73026.84;4995752;28;102197;-80
2023/11/03 04:52:51;;;;;;;;;7.50;7.00;;;;;-143.90;98.15;73012.38;5002542;28;101891;-83
2023/11/03 04:55:17;;;;;;;;;9.25;8.00;;;;;-143.90;98.47;73020.63;5008815;28;103571;-84
2023/11/03 04:57:44;;;;;;;;;8.75;8.00;;;;;-143.90;98.33;73018.56;4988989;28;101947;-81
2023/11/03 05:00:12;;;;;;;;;7.00;7.00;;;;;-143.90;97.42;73014.44;4962935;28;105259;-80
2023/11/03 05:02:40;;;;;;;;;5.75;5.75;;;;;-143.90;97.20;73014.44;4989048;28;102307;-83
2023/11/03 05:05:07;;;;;;;;;7.50;7.00;;;;;-143.90;96.38;73004.09;4987613;28;104066;-79
2023/11/03 05:07:38;;;;;;;;;5.75;5.50;;;;;-143.90;96.89;72993.78;4981512;28;102003;-81
2023/11/03 05:10:06;;;;;;;;;4.50;4.50;;;;;-143.90;96.05;72993.78;4984562;28;102370;-81
2023/11/03 05:12:33;;;;;;;;;5.75;5.75;;;;;-143.90;96.01;72985.50;4987508;28;101992;-81
2023/11/03 05:15:00;;;;;;;;;7.75;6.00;;;;;-143.90;95.55;72971.03;4966197;28;104343;-80
2023/11/03 05:17:26;;;;;;;;;8.00;5.50;;;;;-143.90;95.19;72966.91;4981990;28;102486;-82
2023/11/03 05:19:53;;;;;;;;;6.00;5.25;;;;;-143.90;95.03;72964.84;4985825;28;102259;-81
2023/11/03 05:22:20;;;;;;;;;7.25;6.25;;;;;-143.90;93.72;72960.72;4962660;28;102077;-80
2023/11/03 05:24:46;;;;;;;;;6.50;6.50;;;;;-143.90;94.16;72952.44;4980117;28;104127;-80
2023/11/03 05:27:13;;;;;;;;;4.50;4.25;;;;;-143.90;93.50;72935.91;4986339;28;102177;-81
2023/11/03 05:29:40;;;;;;;;;7.50;6.00;;;;;-143.90;93.69;72938.00;4978846;28;102104;-81
2023/11/03 05:32:06;;;;;;;;;4.25;3.75;;;;;-143.90;93.93;72952.44;4962423;28;102288;-80
2023/11/03 05:34:34;;;;;;;;;4.00;4.00;;;;;-143.90;93.99;72954.50;4974312;28;104194;-80
2023/11/03 05:37:01;;;;;;;;;4.75;4.50;;;;;-143.90;92.73;72962.78;4977583;28;102357;-81
2023/11/03 05:39:28;;;;;;;;;5.00;3.50;;;;;-143.90;92.54;72952.44;4981988;28;102315;-79
2023/11/03 05:41:54;;;;;;;;;5.25;5.25;;;;;-143.90;92.78;72956.59;4971491;28;102508;-81
2023/11/03 05:44:21;;;;;;;;;5.25;5.00;;;;;-143.90;92.71;72960.72;4968207;28;104202;-81
2023/11/03 05:46:47;;;;;;;;;8.00;5.25;;;;;-143.90;92.57;72952.44;4958660;28;102141;-80
2023/11/03 05:49:14;;;;;;;;;3.00;2.50;;;;;-143.90;93.28;72956.59;4976633;28;102184;-81
2023/11/03 05:51:42;;;;;;;;;3.00;3.00;;;;;-143.90;93.06;72956.59;4981005;28;102389;-81
2023/11/03 05:54:09;;;;;;;;;4.00;4.00;;;;;-143.90;91.82;72958.66;4975185;28;104096;-82
2023/11/03 05:56:35;;;;;;;;;5.00;3.75;;;;;-143.90;91.69;72950.38;4979042;28;101796;-82
2023/11/03 05:59:02;;;;;;;;;9.75;8.75;;;;;-143.90;92.22;72950.38;4977815;28;102907;-81
2023/11/03 06:01:33;;;;;;;;;5.75;5.75;;;;;-143.90;92.57;72952.44;4975237;28;103073;-80
2023/11/03 06:04:00;;;;;;;;;9.25;7.25;;;;;-143.90;91.46;72952.44;4976424;28;104084;-79
2023/11/03 06:06:27;;;;;;;;;5.00;5.00;;;;;-143.90;92.09;72946.25;4978803;28;102247;-80
2023/11/03 06:08:55;;;;;;;;;5.25;5.00;;;;;-143.90;92.28;72938.00;4961642;28;101940;-80
2023/11/03 06:11:22;;;;;;;;;4.50;4.50;;;;;-143.90;92.00;72946.25;4981929;28;102225;-80
2023/11/03 06:13:49;;;;;;;;;6.00;4.00;;;;;-143.90;92.18;72940.06;4977975;28;104227;-80
2023/11/03 06:16:22;;;;;;;;;4.75;4.75;;;;;-143.90;92.15;72944.19;4987674;28;102045;-83
2023/11/03 06:18:49;;;;;;;;;6.00;5.75;;;;;-143.90;91.87;72933.84;4987342;28;102089;-82
2023/11/03 06:21:20;;;;;;;;;5.50;5.50;;;;;-143.90;91.28;72929.72;4960893;28;102340;-83
2023/11/03 06:23:46;;;;;;;;;3.00;3.00;;;;;-143.90;91.57;72915.25;4967068;28;104136;-83
2023/11/03 06:26:13;;;;;;;;;4.50;4.25;;;;;-143.90;91.45;72913.19;4986249;28;102001;-83
2023/11/03 06:28:40;;;;;;;;;6.00;5.00;;;;;-143.90;91.11;72919.38;4966789;28;101941;-85
2023/11/03 06:31:07;;;;;;;;;0.50;0.50;;;;;-143.90;90.91;72900.78;4979736;28;101837;-83
2023/11/03 06:33:34;;;;;;;;;5.75;5.75;;;;;-143.90;91.00;72913.19;4974987;28;105928;-83
2023/11/03 06:36:02;;;;;;;;;5.50;4.50;;;;;-143.90;91.10;72888.41;4980863;28;102351;-79
2023/11/03 06:38:32;;;;;;;;;6.50;4.00;;;;;-143.90;90.67;72882.19;4984207;28;102357;-84
2023/11/03 06:40:58;;;;;;;;;5.00;5.00;;;;;-143.90;92.03;72902.84;4970085;28;102204;-83
2023/11/03 06:43:25;;;;;;;;;6.75;5.50;;;;;-143.90;92.43;72917.31;4975337;28;108894;-81
2023/11/03 06:45:51;;;;;;;;;5.75;5.75;;;;;-143.90;92.93;72927.66;4982266;28;102241;-82
2023/11/03 06:48:18;;;;;;;;;4.00;4.00;;;;;-143.90;92.66;72927.66;4979784;28;102258;-81
2023/11/03 06:50:45;;;;;;;;;6.25;5.25;;;;;-143.90;92.99;72942.13;4981076;28;102037;-83
2023/11/03 06:53:12;;;;;;;;;8.75;5.75;;;;;-143.90;93.27;72942.13;4983180;28;103988;-82
2023/11/03 06:55:38;;;;;;;;;6.25;6.25;;;;;-143.90;93.60;72950.38;4976404;28;103048;-83
2023/11/03 06:58:05;;;;;;;;;5.00;5.00;;;;;-143.90;93.81;72935.91;4984962;28;102022;-82
2023/11/03 07:00:31;;;;;;;;;5.75;4.00;;;;;-143.90;93.63;72923.53;4983027;28;102126;-84
2023/11/03 07:03:00;;;;;;;;;5.00;5.00;;;;;-143.90;93.27;72927.66;4979801;28;104080;-75
2023/11/03 07:05:26;;;;;;;;;6.75;6.00;;;;;-143.90;93.29;72927.66;4975602;28;102277;-82
2023/11/03 07:07:53;;;;;;;;;6.00;6.00;;;;;-143.90;93.37;72938.00;4974766;28;102166;-83
2023/11/03 07:10:21;;;;;;;;;5.00;5.00;;;;;-143.90;93.64;72940.06;4967427;28;102201;-83
2023/11/03 07:12:48;;;;;;;;;6.50;6.00;;;;;-143.90;93.88;72935.91;4978260;28;104151;-83
2023/11/03 07:15:16;;;;;;;;;7.00;6.00;;;;;-143.90;93.27;72925.59;4987147;28;102038;-85
2023/11/03 07:17:43;;;;;;;;;5.00;5.00;;;;;-143.90;93.44;72921.47;4983177;28;101930;-84
2023/11/03 07:20:10;;;;;;;;;4.75;4.75;;;;;-143.90;93.74;72929.72;4982816;28;102242;-83
2023/11/03 07:22:38;;;;;;;;;5.25;5.25;;;;;-143.90;92.21;72919.38;4969934;28;103976;-82
2023/11/03 07:25:05;;;;;;;;;4.00;4.00;;;;;-143.90;92.50;72909.06;4982887;28;102183;-83
2023/11/03 07:27:32;;;;;;;;;6.25;4.75;;;;;-143.90;91.39;72915.25;4964085;28;102477;-83
2023/11/03 07:29:58;;;;;;;;;5.00;4.25;;;;;-143.90;91.61;72896.66;4983447;28;102622;-83
2023/11/03 07:32:25;;;;;;;;;3.00;3.00;;;;;-143.90;91.31;72898.72;4984095;28;110191;-84
2023/11/03 07:34:54;;;;;;;;;6.00;5.50;;;;;-143.90;91.52;72902.84;4982189;28;101997;-83
2023/11/03 07:37:20;;;;;;;;;5.00;4.25;;;;;-143.90;91.96;72896.66;4983188;28;102824;-84
2023/11/03 07:39:49;;;;;;;;;3.50;3.00;;;;;-143.90;91.46;72894.59;4986660;28;101958;-82
2023/11/03 07:42:16;;;;;;;;;4.75;4.75;;;;;-143.90;91.72;72898.72;4980952;28;103987;-84
2023/11/03 07:44:43;;;;;;;;;5.00;5.00;;;;;-143.90;90.67;72894.59;4980145;28;102205;-84
2023/11/03 07:47:10;;;;;;;;;5.00;5.00;;;;;-143.90;90.52;72880.13;4984836;28;102366;-84
2023/11/03 07:49:37;;;;;;;;;5.75;5.00;;;;;-143.90;90.42;72869.81;4988113;28;102034;-83
2023/11/03 07:52:04;;;;;;;;;4.75;4.00;;;;;-143.90;90.58;72865.66;4981373;28;104083;-82
2023/11/03 07:54:30;;;;;;;;;4.25;3.25;;;;;-143.90;90.64;72847.06;4967577;28;102484;-76
2023/11/03 07:56:57;;;;;;;;;3.75;3.25;;;;;-143.90;89.41;72838.81;4993458;28;102718;-83
2023/11/03 07:59:24;;;;;;;;;4.00;3.00;;;;;-143.90;90.47;72824.34;4991102;28;102238;-83
2023/11/03 08:01:50;;;;;;;;;3.50;3.50;;;;;-143.90;88.17;72816.06;4984366;28;104156;-83
2023/11/03 08:04:17;;;;;;;;;4.00;3.00;;;;;-143.90;88.91;72816.06;5012305;28;101843;-82
2023/11/03 08:06:47;;;;;;;;;2.50;2.50;;;;;-143.90;89.75;72807.81;5011093;28;102218;-83
2023/11/03 08:09:14;;;;;;;;;3.75;3.00;;;;;-143.90;88.32;72816.06;4982018;28;102210;-83
2023/11/03 08:11:41;;;;;;;;;3.00;2.25;;;;;-143.90;88.53;72805.75;4987262;28;104318;-82
2023/11/03 08:14:07;;;;;;;;;4.25;4.00;;;;;-143.90;89.26;72809.88;4983552;28;101839;-82
2023/11/03 08:16:34;;;;;;;;;4.00;3.00;;;;;-143.90;88.64;72807.81;4983982;28;102124;-82
2023/11/03 08:19:01;;;;;;;;;2.50;2.00;;;;;-143.90;88.66;72816.06;4979158;28;103507;-82
2023/11/03 08:21:28;;;;;;;;;4.50;4.00;;;;;-143.90;87.98;72826.41;4987366;28;108687;-85
2023/11/03 08:23:55;;;;;;;;;4.75;4.25;;;;;-143.90;88.41;72834.69;4984994;28;102169;-84
2023/11/03 08:26:21;;;;;;;;;4.50;4.00;;;;;-143.90;89.98;72840.88;4982003;28;101711;-82
2023/11/03 08:28:49;;;;;;;;;4.00;3.00;;;;;-143.90;89.94;72836.75;4990476;28;102155;-84
2023/11/03 08:31:16;;;;;;;;;3.50;3.50;;;;;-143.90;88.53;72845.00;4978777;28;104115;-83
2023/11/03 08:33:42;;;;;;;;;6.00;5.25;;;;;-143.90;90.40;72861.53;4981287;28;102308;-84
2023/11/03 08:36:11;;;;;;;;;6.50;5.75;;;;;-143.90;90.71;72873.94;4984320;28;102335;-83
2023/11/03 08:38:38;;;;;;;;;5.00;4.25;;;;;-143.90;90.88;72855.34;4985598;28;102144;-84
2023/11/03 08:41:04;;;;;;;;;1.50;1.50;;;;;-143.90;89.63;72836.75;4980501;28;104108;-83
2023/11/03 08:43:31;;;;;;;;;4.75;4.00;;;;;-143.90;90.24;72830.53;4961829;28;102461;-83
2023/11/03 08:45:58;;;;;;;;;5.00;4.00;;;;;-143.90;89.96;72826.41;4989531;28;101972;-82
2023/11/03 08:48:27;;;;;;;;;6.00;4.75;;;;;-143.90;88.93;72818.16;4983351;28;102018;-83
2023/11/03 08:50:54;;;;;;;;;3.25;3.00;;;;;-143.90;88.41;72807.81;4979588;28;104200;-83
2023/11/03 08:53:24;;;;;;;;;5.00;5.00;;;;;-143.90;88.52;72797.47;4986282;28;102010;-83
2023/11/03 08:55:51;;;;;;;;;4.00;4.00;;;;;-143.90;88.29;72793.34;4981970;28;102438;-83
2023/11/03 08:58:17;;;;;;;;;5.25;5.25;;;;;-143.90;88.23;72783.03;4977865;28;102105;-84
2023/11/03 09:00:54;;;;;;;;;7.25;6.00;;;;;-143.90;87.79;72787.16;4983956;28;104004;-81
2023/11/03 09:03:21;;;;;;;;;4.00;4.00;;;;;-143.90;88.39;72783.03;4984994;28;103123;-84
2023/11/03 09:05:48;;;;;;;;;4.00;4.00;;;;;-143.90;87.75;72776.81;4979925;28;102118;-84
2023/11/03 09:08:15;;;;;;;;;4.25;3.50;;;;;-143.90;87.33;72772.69;4983694;28;102036;-82
2023/11/03 09:10:42;;;;;;;;;4.50;3.00;;;;;-143.90;87.57;72774.75;4979927;28;103848;-85
2023/11/03 09:13:08;;;;;;;;;6.50;5.00;;;;;-143.90;88.43;72774.75;4984920;28;101807;-85
2023/11/03 09:15:35;;;;;;;;;5.00;5.00;;;;;-143.90;87.76;72776.81;4978883;28;102269;-83
2023/11/03 09:18:15;;;;;;;;;5.75;5.75;;;;;-143.90;87.44;72783.03;4985462;28;102101;-84
2023/11/03 09:20:42;;;;;;;;;9.00;6.00;;;;;-143.90;87.72;72778.88;4981804;28;103994;-83
2023/11/03 09:23:09;;;;;;;;;4.25;4.00;;;;;-143.90;88.46;72772.69;4962922;28;102301;-84
2023/11/03 09:25:35;;;;;;;;;4.75;4.00;;;;;-143.90;88.41;72770.63;4985393;28;101977;-84
2023/11/03 09:28:02;;;;;;;;;5.00;4.00;;;;;-143.90;87.76;72768.56;4981124;28;102236;-82
2023/11/03 09:30:30;;;;;;;;;6.75;5.25;;;;;-143.90;88.50;72774.75;4983535;28;104225;-82
2023/11/03 09:32:57;;;;;;;;;6.00;6.00;;;;;-143.90;88.80;72780.97;4985446;28;102400;-84
2023/11/03 09:35:24;;;;;;;;;6.50;5.75;;;;;-143.90;88.86;72780.97;4986236;28;102286;-84
2023/11/03 09:37:53;;;;;;;;;5.50;4.50;;;;;-143.90;90.05;72780.97;4984502;28;102284;-84
2023/11/03 09:40:22;;;;;;;;;5.50;4.75;;;;;-143.90;89.75;72785.09;4981494;28;104276;-82
2023/11/03 09:42:49;;;;;;;;;5.25;5.00;;;;;-143.90;90.00;72787.16;4989504;28;101856;-82
2023/11/03 09:45:19;;;;;;;;;4.00;4.00;;;;;-143.90;90.94;72791.28;4983695;28;101956;-82
2023/11/03 09:47:46;;;;;;;;;2.00;2.00;;;;;-143.90;89.60;72774.75;4982954;28;101873;-83
2023/11/03 09:50:13;;;;;;;;;4.00;3.00;;;;;-143.90;89.47;72772.69;4966953;28;104032;-82
2023/11/03 09:52:49;;;;;;;;;4.75;4.75;;;;;-143.90;89.92;72762.34;4987446;28;105905;-83
2023/11/03 09:55:21;;;;;;;;;11.25;10.75;;;;;-143.90;89.51;72758.22;4982521;28;103629;-83
2023/11/03 09:57:54;;;;;;;;;10.25;10.00;;;;;-143.90;90.19;72762.34;4985914;28;102052;-82
2023/11/03 10:00:23;;;;;;;;;6.00;5.50;;;;;-143.90;89.20;72754.09;4981650;28;104084;-84
2023/11/03 10:02:50;;;;;;;;;4.25;4.25;;;;;-143.90;89.84;72749.97;4974475;28;102899;-82
2023/11/03 10:05:18;;;;;;;;;4.00;3.00;;;;;-143.90;89.85;72741.69;4960869;28;102047;-83
2023/11/03 10:08:05;;;;;;;;;8.50;7.00;;;;;-143.90;89.76;72737.56;4980348;28;103322;-83
2023/11/03 10:10:34;;;;;;;;;6.00;4.75;;;;;-143.90;90.21;72745.84;4963769;28;108852;-82
2023/11/03 10:13:12;;;;;;;;;5.00;4.00;;;;;-143.90;90.53;72729.31;4965740;28;103403;-82
2023/11/03 10:15:40;;;;;;;;;5.00;5.00;;;;;-143.90;90.71;72704.50;4984944;28;102529;-82
2023/11/03 10:18:08;;;;;;;;;9.25;7.25;;;;;-143.90;89.35;72708.63;4968347;28;102282;-82
2023/11/03 10:20:34;;;;;;;;;7.00;5.00;;;;;-143.90;90.32;72716.91;4982170;28;103976;-84
2023/11/03 10:23:02;;;;;;;;;6.00;5.00;;;;;-143.90;90.73;72700.38;4989739;28;102032;-80
2023/11/03 10:25:30;;;;;;;;;4.75;4.00;;;;;-143.90;91.00;72690.03;4973912;28;102154;-82
2023/11/03 10:27:57;;;;;;;;;3.50;3.50;;;;;-143.90;90.79;72683.84;4986252;28;102229;-82
2023/11/03 10:30:27;;;;;;;;;5.00;4.00;;;;;-143.90;90.56;72677.66;4981196;28;104290;-86
2023/11/03 10:32:54;;;;;;;;;7.25;6.25;;;;;-143.90;91.21;72692.09;4989937;28;102082;-85
2023/11/03 10:35:22;;;;;;;;;6.25;5.50;;;;;-143.90;92.50;72694.19;4986309;28;102039;-83
2023/11/03 10:37:49;;;;;;;;;6.25;6.25;;;;;-143.90;91.76;72687.97;4980960;28;101991;-83
2023/11/03 10:40:16;;;;;;;;;6.00;6.00;;;;;-143.90;92.22;72690.03;4981580;28;104230;-84
2023/11/03 10:42:50;;;;;;;;;4.75;4.25;;;;;-143.90;92.67;72681.78;4984722;28;102487;-83
2023/11/03 10:45:20;;;;;;;;;5.75;5.00;;;;;-143.90;92.35;72685.91;4984411;28;102105;-83
2023/11/03 10:48:09;;;;;;;;;6.00;5.00;;;;;-143.90;92.62;72683.84;4982571;28;101920;-84
2023/11/03 10:50:44;;;;;;;;;7.00;5.75;;;;;-143.90;92.66;72679.72;4982315;28;108902;-82
2023/11/03 10:53:35;;;;;;;;;5.00;4.25;;;;;-143.90;92.63;72671.44;4986478;28;101975;-86
2023/11/03 10:56:05;;;;;;;;;6.50;5.50;;;;;-143.90;92.17;72654.91;4985538;28;101789;-82
2023/11/03 10:58:52;;;;;;;;;9.00;8.50;;;;;-143.90;92.23;72657.00;4986692;28;102002;-82
2023/11/03 11:01:27;;;;;;;;;6.50;5.75;;;;;-143.90;92.07;72652.84;4983507;28;104015;-83
2023/11/03 11:04:06;;;;;;;;;6.25;5.00;;;;;-143.90;91.79;72628.06;4983815;28;102513;-83
2023/11/03 11:06:40;;;;;;;;;7.75;4.75;;;;;-143.90;91.84;72630.13;5007491;28;101439;-83